La rose des vents
Donnes mto: Semaine 12/11/07 - 18/11/07 (S 46)
Date Horaire Temp. E. Hum. E. P.atmo. Pluie Vent 1mn Direction Ensoleilleme Ev.Tr. Solaire P. de rose Temp au vent Rafales
12/11/2007 00:00 8,8 C 82 % 1006,7 hPa 0,0 l/m 5,9 km/h (2 Bft) O-NO 0,00 h 0,025 mm 0 W/m 6,0 C 8,2 C 9,0 km/h (2 Bft)
12/11/2007 01:00 8,8 C 82 % 1006,3 hPa 0,0 l/m 4,8 km/h (1 Bft) O-NO 0,00 h 0,025 mm 0 W/m 5,8 C 8,4 C 7,4 km/h (2 Bft)
12/11/2007 02:00 8,6 C 80 % 1006,0 hPa 0,0 l/m 5,2 km/h (1 Bft) O-NO 0,00 h 0,025 mm 0 W/m 5,4 C 8,0 C 8,3 km/h (2 Bft)
12/11/2007 03:00 8,5 C 78 % 1005,7 hPa 0,0 l/m 5,0 km/h (1 Bft) O-NO 0,00 h 0,025 mm 0 W/m 4,9 C 8,0 C 7,4 km/h (2 Bft)
12/11/2007 04:00 8,8 C 75 % 1005,8 hPa 0,0 l/m 5,1 km/h (1 Bft) O-NO 0,00 h 0,025 mm 0 W/m 4,5 C 8,2 C 6,7 km/h (2 Bft)
12/11/2007 05:00 8,8 C 74 % 1006,1 hPa 0,0 l/m 2,9 km/h (1 Bft) O 0,00 h 0,025 mm 0 W/m 4,5 C 8,7 C 3,7 km/h (1 Bft)
12/11/2007 06:00 8,6 C 75 % 1006,2 hPa 0,0 l/m 5,5 km/h (1 Bft) O-NO 0,00 h 0,025 mm 0 W/m 4,4 C 8,0 C 7,6 km/h (2 Bft)
12/11/2007 07:00 8,8 C 70 % 1006,4 hPa 0,0 l/m 5,9 km/h (2 Bft) O-NO 0,47 h 0,025 mm 37 W/m 3,7 C 8,1 C 8,5 km/h (2 Bft)
12/11/2007 08:00 11,9 C 66 % 1006,7 hPa 0,0 l/m 1,8 km/h (1 Bft) NO 1,00 h 0,051 mm 158 W/m 5,6 C 11,9 C 2,8 km/h (1 Bft)
12/11/2007 09:00 12,8 C 62 % 1007,4 hPa 0,0 l/m 0,6 km/h (0 Bft) N 1,00 h 0,102 mm 331 W/m 5,8 C 12,8 C 2,0 km/h (1 Bft)
12/11/2007 10:00 16,0 C 52 % 1007,7 hPa 0,0 l/m 4,5 km/h (1 Bft) E-NE 1,00 h 0,178 mm 481 W/m 6,1 C 16,0 C 7,1 km/h (2 Bft)
12/11/2007 11:00 17,1 C 49 % 1008,0 hPa 0,0 l/m 6,6 km/h (2 Bft) E 1,00 h 0,279 mm 516 W/m 6,4 C 17,1 C 10,8 km/h (2 Bft)
12/11/2007 12:00 16,4 C 59 % 1008,2 hPa 0,0 l/m 7,5 km/h (2 Bft) E 1,00 h 0,330 mm 487 W/m 8,4 C 16,4 C 12,7 km/h (3 Bft)
12/11/2007 13:00 16,4 C 63 % 1008,3 hPa 0,0 l/m 5,4 km/h (1 Bft) E-SE 1,00 h 0,305 mm 433 W/m 9,4 C 16,4 C 9,8 km/h (2 Bft)
12/11/2007 14:00 16,4 C 66 % 1008,5 hPa 0,0 l/m 3,2 km/h (1 Bft) E 0,98 h 0,254 mm 341 W/m 10,1 C 16,4 C 6,3 km/h (2 Bft)
12/11/2007 15:00 15,8 C 70 % 1009,1 hPa 0,0 l/m 3,3 km/h (1 Bft) S-SE 1,00 h 0,203 mm 222 W/m 10,4 C 15,8 C 6,0 km/h (2 Bft)
12/11/2007 16:00 14,5 C 76 % 1009,8 hPa 0,0 l/m 0,4 km/h (0 Bft) SE 0,30 h 0,127 mm 51 W/m 10,3 C 14,5 C 1,2 km/h (1 Bft)
12/11/2007 17:00 12,9 C 80 % 1010,4 hPa 0,0 l/m 2,5 km/h (1 Bft) SE 0,00 h 0,025 mm 5 W/m 9,5 C 12,9 C 3,8 km/h (1 Bft)
12/11/2007 18:00 12,1 C 83 % 1011,1 hPa 0,0 l/m 7,1 km/h (2 Bft) O-NO 0,00 h 0,000 mm 0 W/m 9,2 C 12,1 C 9,7 km/h (2 Bft)
12/11/2007 19:00 11,3 C 80 % 1011,5 hPa 0,0 l/m 4,9 km/h (1 Bft) O-NO 0,00 h 0,025 mm 0 W/m 8,0 C 11,3 C 6,9 km/h (2 Bft)
12/11/2007 20:00 11,1 C 77 % 1011,9 hPa 0,0 l/m 7,4 km/h (2 Bft) O-NO 0,00 h 0,025 mm 0 W/m 7,3 C 11,1 C 9,7 km/h (2 Bft)
12/11/2007 21:00 10,9 C 73 % 1012,3 hPa 0,0 l/m 10,4 km/h (2 Bft) O-NO 0,00 h 0,025 mm 0 W/m 6,4 C 10,9 C 13,5 km/h (3 Bft)
12/11/2007 22:00 10,9 C 69 % 1012,3 hPa 0,0 l/m 10,6 km/h (2 Bft) O-NO 0,00 h 0,051 mm 0 W/m 5,4 C 10,9 C 13,6 km/h (3 Bft)
12/11/2007 23:00 11,0 C 60 % 1012,5 hPa 0,0 l/m 11,3 km/h (2 Bft) O-NO 0,00 h 0,051 mm 0 W/m 3,6 C 11,0 C 15,2 km/h (3 Bft)
13/11/2007 00:00 10,1 C 57 % 1012,8 hPa 0,0 l/m 11,1 km/h (2 Bft) O-NO 0,00 h 0,076 mm 0 W/m 2,0 C 9,3 C 14,6 km/h (3 Bft)
13/11/2007 01:00 9,2 C 55 % 1013,0 hPa 0,0 l/m 7,0 km/h (2 Bft) O-NO 0,00 h 0,076 mm 0 W/m 0,6 C 8,4 C 9,5 km/h (2 Bft)
13/11/2007 02:00 8,4 C 56 % 1013,3 hPa 0,0 l/m 11,5 km/h (2 Bft) O-NO 0,00 h 0,051 mm 0 W/m 0,2 C 6,6 C 15,0 km/h (3 Bft)
13/11/2007 03:00 9,4 C 47 % 1013,4 hPa 0,0 l/m 10,2 km/h (2 Bft) O-NO 0,00 h 0,076 mm 0 W/m -1,2 C 8,0 C 13,3 km/h (3 Bft)
13/11/2007 04:00 9,4 C 48 % 1013,5 hPa 0,0 l/m 8,1 km/h (2 Bft) O 0,00 h 0,076 mm 0 W/m -1,1 C 8,3 C 11,3 km/h (2 Bft)
13/11/2007 05:00 9,7 C 49 % 1013,6 hPa 0,0 l/m 7,6 km/h (2 Bft) O 0,00 h 0,076 mm 0 W/m -0,5 C 8,8 C 10,0 km/h (2 Bft)
13/11/2007 06:00 8,9 C 52 % 1013,5 hPa 0,0 l/m 8,3 km/h (2 Bft) O-NO 0,00 h 0,076 mm 0 W/m -0,4 C 7,6 C 11,6 km/h (2 Bft)
13/11/2007 07:00 8,1 C 57 % 1013,6 hPa 0,0 l/m 11,1 km/h (2 Bft) O-NO 0,28 h 0,051 mm 23 W/m 0,0 C 6,2 C 15,5 km/h (3 Bft)
13/11/2007 08:00 9,9 C 53 % 1013,8 hPa 0,0 l/m 10,3 km/h (2 Bft) O-NO 1,00 h 0,051 mm 125 W/m 0,9 C 9,0 C 14,6 km/h (3 Bft)
13/11/2007 09:00 12,9 C 46 % 1013,8 hPa 0,0 l/m 3,2 km/h (1 Bft) O 1,00 h 0,127 mm 262 W/m 1,6 C 12,9 C 5,1 km/h (1 Bft)
13/11/2007 10:00 14,7 C 42 % 1013,7 hPa 0,0 l/m 4,6 km/h (1 Bft) S 0,97 h 0,152 mm 394 W/m 1,9 C 14,7 C 7,8 km/h (2 Bft)
13/11/2007 11:00 14,0 C 42 % 1013,4 hPa 0,0 l/m 3,9 km/h (1 Bft) S-SE 0,62 h 0,229 mm 284 W/m 1,3 C 14,0 C 7,3 km/h (2 Bft)
13/11/2007 12:00 14,1 C 45 % 1012,6 hPa 0,0 l/m 7,2 km/h (2 Bft) E 0,35 h 0,178 mm 269 W/m 2,4 C 14,1 C 11,5 km/h (2 Bft)
13/11/2007 13:00 13,3 C 49 % 1011,8 hPa 0,0 l/m 5,2 km/h (1 Bft) S-SE 0,13 h 0,178 mm 159 W/m 3,0 C 13,3 C 8,7 km/h (2 Bft)
13/11/2007 14:00 14,1 C 51 % 1010,8 hPa 0,0 l/m 10,4 km/h (2 Bft) S 0,92 h 0,127 mm 371 W/m 4,1 C 14,1 C 15,6 km/h (3 Bft)
13/11/2007 15:00 14,2 C 50 % 1010,1 hPa 0,0 l/m 8,7 km/h (2 Bft) S-SE 0,95 h 0,254 mm 210 W/m 3,8 C 14,2 C 12,5 km/h (3 Bft)
13/11/2007 16:00 13,2 C 55 % 1009,7 hPa 0,0 l/m 7,2 km/h (2 Bft) S 0,95 h 0,178 mm 74 W/m 4,2 C 13,2 C 10,3 km/h (2 Bft)
13/11/2007 17:00 10,9 C 62 % 1009,4 hPa 0,0 l/m 4,2 km/h (1 Bft) SO 0,00 h 0,076 mm 8 W/m 3,9 C 10,9 C 5,6 km/h (1 Bft)
13/11/2007 18:00 9,8 C 65 % 1009,3 hPa 0,0 l/m 4,2 km/h (1 Bft) O-SO 0,00 h 0,025 mm 0 W/m 3,5 C 9,7 C 6,2 km/h (2 Bft)
13/11/2007 19:00 8,9 C 66 % 1008,7 hPa 0,0 l/m 4,8 km/h (1 Bft) NO 0,00 h 0,051 mm 0 W/m 3,0 C 8,5 C 7,2 km/h (2 Bft)
13/11/2007 20:00 8,5 C 66 % 1007,8 hPa 0,0 l/m 3,3 km/h (1 Bft) NO 0,00 h 0,025 mm 0 W/m 2,5 C 8,3 C 5,7 km/h (1 Bft)
13/11/2007 21:00 8,6 C 65 % 1006,9 hPa 0,0 l/m 4,5 km/h (1 Bft) NO 0,00 h 0,025 mm 0 W/m 2,4 C 8,2 C 6,5 km/h (2 Bft)
13/11/2007 22:00 8,8 C 63 % 1005,9 hPa 0,0 l/m 3,4 km/h (1 Bft) O-NO 0,00 h 0,025 mm 0 W/m 2,3 C 8,6 C 5,2 km/h (1 Bft)
13/11/2007 23:00 8,4 C 60 % 1004,9 hPa 0,0 l/m 7,0 km/h (2 Bft) O 0,00 h 0,025 mm 0 W/m 1,0 C 7,4 C 9,9 km/h (2 Bft)
14/11/2007 00:00 8,2 C 58 % 1003,6 hPa 0,0 l/m 5,5 km/h (1 Bft) O 0,00 h 0,051 mm 0 W/m 0,4 C 7,4 C 7,5 km/h (2 Bft)
14/11/2007 01:00 7,5 C 57 % 1001,9 hPa 0,0 l/m 3,7 km/h (1 Bft) O 0,00 h 0,051 mm 0 W/m -0,5 C 7,1 C 5,5 km/h (1 Bft)
14/11/2007 02:00 6,9 C 57 % 1000,7 hPa 0,0 l/m 2,8 km/h (1 Bft) N-NO 0,00 h 0,051 mm 0 W/m -1,0 C 6,8 C 4,2 km/h (1 Bft)
14/11/2007 03:00 6,7 C 61 % 999,6 hPa 0,0 l/m 6,4 km/h (2 Bft) O 0,00 h 0,025 mm 0 W/m -0,4 C 5,6 C 8,7 km/h (2 Bft)
14/11/2007 04:00 7,0 C 49 % 998,8 hPa 0,0 l/m 7,3 km/h (2 Bft) O 0,00 h 0,051 mm 0 W/m -3,1 C 5,7 C 10,8 km/h (2 Bft)
14/11/2007 05:00 7,0 C 54 % 998,2 hPa 0,0 l/m 2,8 km/h (1 Bft) O 0,00 h 0,051 mm 0 W/m -1,5 C 6,8 C 4,4 km/h (1 Bft)
14/11/2007 06:00 7,2 C 58 % 997,7 hPa 0,0 l/m 2,1 km/h (1 Bft) N-NO 0,00 h 0,051 mm 0 W/m -0,5 C 7,0 C 3,8 km/h (1 Bft)
14/11/2007 07:00 8,0 C 57 % 997,0 hPa 0,0 l/m 4,4 km/h (1 Bft) E-NE 0,00 h 0,025 mm 9 W/m -0,0 C 7,6 C 6,4 km/h (2 Bft)
14/11/2007 08:00 10,1 C 53 % 997,2 hPa 0,0 l/m 4,7 km/h (1 Bft) N-NE 0,92 h 0,025 mm 128 W/m 1,0 C 9,8 C 8,1 km/h (2 Bft)
14/11/2007 09:00 12,4 C 50 % 997,4 hPa 0,0 l/m 5,5 km/h (1 Bft) E 1,00 h 0,102 mm 269 W/m 2,3 C 12,4 C 8,7 km/h (2 Bft)
14/11/2007 10:00 14,0 C 44 % 997,5 hPa 0,0 l/m 4,2 km/h (1 Bft) E 0,90 h 0,178 mm 360 W/m 1,9 C 14,0 C 7,7 km/h (2 Bft)
14/11/2007 11:00 14,5 C 55 % 997,8 hPa 0,0 l/m 7,1 km/h (2 Bft) E 1,00 h 0,229 mm 435 W/m 5,6 C 14,5 C 11,7 km/h (2 Bft)
14/11/2007 12:00 14,7 C 57 % 997,9 hPa 0,0 l/m 8,3 km/h (2 Bft) E 0,95 h 0,279 mm 444 W/m 6,3 C 14,7 C 13,0 km/h (3 Bft)
14/11/2007 13:00 14,8 C 59 % 997,8 hPa 0,0 l/m 6,7 km/h (2 Bft) SE 0,88 h 0,279 mm 436 W/m 6,8 C 14,8 C 11,3 km/h (2 Bft)
14/11/2007 14:00 14,2 C 61 % 997,6 hPa 0,0 l/m 5,1 km/h (1 Bft) E-SE 0,73 h 0,254 mm 289 W/m 6,9 C 14,2 C 9,8 km/h (2 Bft)
14/11/2007 15:00 14,1 C 60 % 997,6 hPa 0,0 l/m 5,7 km/h (1 Bft) E 1,00 h 0,178 mm 213 W/m 6,6 C 14,1 C 9,4 km/h (2 Bft)
14/11/2007 16:00 13,0 C 64 % 998,0 hPa 0,0 l/m 1,9 km/h (1 Bft) E-SE 0,97 h 0,152 mm 64 W/m 6,5 C 13,0 C 3,8 km/h (1 Bft)
14/11/2007 17:00 10,8 C 72 % 998,4 hPa 0,0 l/m 4,8 km/h (1 Bft) E-NE 0,00 h 0,051 mm 13 W/m 5,8 C 10,8 C 7,1 km/h (2 Bft)
14/11/2007 18:00 9,6 C 73 % 998,8 hPa 0,0 l/m 3,0 km/h (1 Bft) NE 0,00 h 0,025 mm 0 W/m 5,0 C 9,4 C 5,1 km/h (1 Bft)
14/11/2007 19:00 9,6 C 74 % 999,0 hPa 0,0 l/m 4,9 km/h (1 Bft) NO 0,00 h 0,025 mm 0 W/m 5,2 C 9,2 C 7,3 km/h (2 Bft)
14/11/2007 20:00 9,0 C 71 % 999,3 hPa 0,0 l/m 1,2 km/h (1 Bft) N-NO 0,00 h 0,025 mm 0 W/m 3,9 C 9,0 C 2,2 km/h (1 Bft)
14/11/2007 21:00 8,6 C 69 % 999,7 hPa 0,0 l/m 3,5 km/h (1 Bft) NO 0,00 h 0,025 mm 0 W/m 3,2 C 8,2 C 5,1 km/h (1 Bft)
14/11/2007 22:00 8,6 C 49 % 1000,1 hPa 0,0 l/m 3,7 km/h (1 Bft) NO 0,00 h 0,025 mm 0 W/m -1,7 C 8,3 C 5,7 km/h (1 Bft)
14/11/2007 23:00 7,7 C 42 % 1000,5 hPa 0,0 l/m 2,0 km/h (1 Bft) NO 0,00 h 0,051 mm 0 W/m -4,4 C 7,6 C 3,7 km/h (1 Bft)
15/11/2007 00:00 7,6 C 32 % 1000,8 hPa 0,0 l/m 2,8 km/h (1 Bft) O 0,00 h 0,051 mm 0 W/m -8,0 C 7,4 C 4,2 km/h (1 Bft)
15/11/2007 01:00 6,9 C 34 % 1001,2 hPa 0,0 l/m 8,0 km/h (2 Bft) NO 0,00 h 0,051 mm 0 W/m -8,1 C 5,4 C 11,6 km/h (2 Bft)
15/11/2007 02:00 7,3 C 33 % 1001,4 hPa 0,0 l/m 13,8 km/h (3 Bft) O-NO 0,00 h 0,076 mm 0 W/m -8,1 C 4,8 C 18,7 km/h (3 Bft)
15/11/2007 03:00 7,3 C 38 % 1001,3 hPa 0,0 l/m 4,7 km/h (1 Bft) NO 0,00 h 0,102 mm 0 W/m -6,3 C 6,7 C 7,4 km/h (2 Bft)
15/11/2007 04:00 6,5 C 40 % 1001,4 hPa 0,0 l/m 1,5 km/h (1 Bft) NO 0,00 h 0,051 mm 0 W/m -6,2 C 6,4 C 2,9 km/h (1 Bft)
15/11/2007 05:00 6,1 C 40 % 1001,7 hPa 0,0 l/m 3,3 km/h (1 Bft) O-SO 0,00 h 0,051 mm 0 W/m -6,4 C 5,7 C 4,2 km/h (1 Bft)
15/11/2007 06:00 6,0 C 40 % 1001,8 hPa 0,0 l/m 1,0 km/h (0 Bft) O-SO 0,00 h 0,051 mm 0 W/m -6,5 C 6,0 C 1,8 km/h (1 Bft)
15/11/2007 07:00 6,1 C 41 % 1001,9 hPa 0,0 l/m 1,7 km/h (1 Bft) O-SO 0,00 h 0,051 mm 9 W/m -6,3 C 5,9 C 2,6 km/h (1 Bft)
15/11/2007 08:00 6,1 C 44 % 1002,9 hPa 0,0 l/m 10,0 km/h (2 Bft) N-NE 0,00 h 0,025 mm 28 W/m -5,3 C 4,2 C 16,4 km/h (3 Bft)
15/11/2007 09:00 5,6 C 62 % 1004,8 hPa 0,0 l/m 9,0 km/h (2 Bft) N 0,00 h 0,076 mm 11 W/m -1,2 C 3,8 C 16,7 km/h (3 Bft)
15/11/2007 10:00 2,9 C 82 % 1006,6 hPa 1,6 l/m 10,6 km/h (2 Bft) N-NO 0,00 h 0,051 mm 24 W/m 0,2 C 0,2 C 17,8 km/h (3 Bft)
15/11/2007 11:00 3,4 C 85 % 1005,5 hPa 0,0 l/m 14,6 km/h (3 Bft) N 0,25 h 0,025 mm 203 W/m 1,0 C -0,1 C 26,0 km/h (4 Bft)
15/11/2007 12:00 7,2 C 54 % 1003,4 hPa 0,0 l/m 14,8 km/h (3 Bft) N 0,67 h 0,102 mm 411 W/m -1,7 C 4,5 C 27,4 km/h (4 Bft)
15/11/2007 13:00 9,1 C 39 % 1003,6 hPa 0,0 l/m 10,8 km/h (2 Bft) N-NE 0,45 h 0,254 mm 285 W/m -4,2 C 7,6 C 18,7 km/h (3 Bft)
15/11/2007 14:00 7,9 C 39 % 1003,6 hPa 0,0 l/m 6,9 km/h (2 Bft) NE 0,00 h 0,203 mm 101 W/m -5,3 C 6,9 C 11,6 km/h (2 Bft)
15/11/2007 15:00 8,1 C 37 % 1003,9 hPa 0,0 l/m 5,1 km/h (1 Bft) NE 0,00 h 0,102 mm 94 W/m -5,6 C 7,5 C 8,1 km/h (2 Bft)
15/11/2007 16:00 7,3 C 40 % 1004,3 hPa 0,0 l/m 1,5 km/h (1 Bft) N-NE 0,00 h 0,076 mm 19 W/m -5,4 C 7,2 C 3,4 km/h (1 Bft)
15/11/2007 17:00 6,4 C 40 % 1004,8 hPa 0,0 l/m 1,0 km/h (0 Bft) N 0,00 h 0,025 mm 0 W/m -6,2 C 6,3 C 2,7 km/h (1 Bft)
15/11/2007 18:00 6,7 C 36 % 1005,0 hPa 0,0 l/m 6,6 km/h (2 Bft) NE 0,00 h 0,025 mm 0 W/m -7,2 C 5,6 C 9,9 km/h (2 Bft)
15/11/2007 19:00 6,3 C 38 % 1005,4 hPa 0,0 l/m 5,0 km/h (1 Bft) N-NE 0,00 h 0,076 mm 0 W/m -7,0 C 5,6 C 8,0 km/h (2 Bft)
15/11/2007 20:00 6,6 C 33 % 1005,3 hPa 0,0 l/m 7,7 km/h (2 Bft) N-NE 0,00 h 0,051 mm 0 W/m -8,5 C 5,2 C 12,0 km/h (2 Bft)
15/11/2007 21:00 7,0 C 31 % 1005,8 hPa 0,0 l/m 7,7 km/h (2 Bft) NE 0,00 h 0,076 mm 0 W/m -9,0 C 5,5 C 11,6 km/h (2 Bft)
15/11/2007 22:00 7,1 C 30 % 1006,8 hPa 0,0 l/m 7,4 km/h (2 Bft) N-NE 0,00 h 0,076 mm 0 W/m -9,5 C 5,8 C 11,2 km/h (2 Bft)
15/11/2007 23:00 6,4 C 33 % 1007,3 hPa 0,0 l/m 4,4 km/h (1 Bft) N 0,00 h 0,076 mm 0 W/m -8,6 C 5,9 C 7,0 km/h (2 Bft)
16/11/2007 00:00 6,6 C 32 % 1007,6 hPa 0,0 l/m 4,9 km/h (1 Bft) N-NE 0,00 h 0,051 mm 0 W/m -9,0 C 5,9 C 8,3 km/h (2 Bft)
16/11/2007 01:00 7,0 C 29 % 1007,8 hPa 0,0 l/m 6,8 km/h (2 Bft) N-NE 0,00 h 0,076 mm 0 W/m -9,7 C 5,9 C 11,7 km/h (2 Bft)
16/11/2007 02:00 6,8 C 28 % 1008,2 hPa 0,0 l/m 5,4 km/h (1 Bft) N-NE 0,00 h 0,076 mm 0 W/m -10,2 C 6,0 C 9,6 km/h (2 Bft)
16/11/2007 03:00 6,3 C 28 % 1008,8 hPa 0,0 l/m 4,7 km/h (1 Bft) N-NE 0,00 h 0,076 mm 0 W/m -10,7 C 5,7 C 8,4 km/h (2 Bft)
16/11/2007 04:00 6,4 C 28 % 1009,1 hPa 0,0 l/m 4,1 km/h (1 Bft) NE 0,00 h 0,076 mm 0 W/m -10,9 C 5,9 C 6,7 km/h (2 Bft)
16/11/2007 05:00 6,2 C 29 % 1009,9 hPa 0,0 l/m 6,3 km/h (2 Bft) E 0,00 h 0,076 mm 0 W/m -10,6 C 5,0 C 8,5 km/h (2 Bft)
16/11/2007 06:00 5,6 C 30 % 1010,4 hPa 0,0 l/m 4,2 km/h (1 Bft) NO 0,00 h 0,076 mm 0 W/m -10,7 C 5,0 C 6,6 km/h (2 Bft)
16/11/2007 07:00 5,7 C 30 % 1011,0 hPa 0,0 l/m 1,9 km/h (1 Bft) N-NE 0,35 h 0,051 mm 26 W/m -10,6 C 5,6 C 4,3 km/h (1 Bft)
16/11/2007 08:00 6,4 C 30 % 1011,7 hPa 0,0 l/m 5,1 km/h (1 Bft) S 0,57 h 0,025 mm 80 W/m -9,9 C 5,6 C 6,9 km/h (2 Bft)
16/11/2007 09:00 6,7 C 33 % 1012,6 hPa 0,0 l/m 1,8 km/h (1 Bft) S 0,00 h 0,076 mm 69 W/m -8,5 C 6,6 C 2,6 km/h (1 Bft)
16/11/2007 10:00 7,7 C 33 % 1013,3 hPa 0,0 l/m 1,0 km/h (0 Bft) S-SE 0,00 h 0,051 mm 130 W/m -7,5 C 7,7 C 2,1 km/h (1 Bft)
16/11/2007 11:00 8,5 C 33 % 1013,6 hPa 0,0 l/m 2,9 km/h (1 Bft) S-SE 0,00 h 0,076 mm 157 W/m -6,9 C 8,4 C 4,6 km/h (1 Bft)
16/11/2007 12:00 9,1 C 34 % 1013,4 hPa 0,0 l/m 7,1 km/h (2 Bft) O 0,07 h 0,102 mm 199 W/m -6,1 C 8,2 C 10,4 km/h (2 Bft)
16/11/2007 13:00 9,8 C 29 % 1012,9 hPa 0,0 l/m 10,5 km/h (2 Bft) O-SO 0,15 h 0,152 mm 214 W/m -7,4 C 8,4 C 14,5 km/h (3 Bft)
16/11/2007 14:00 9,9 C 28 % 1012,7 hPa 0,0 l/m 12,7 km/h (3 Bft) SO 0,47 h 0,178 mm 206 W/m -8,0 C 8,3 C 17,2 km/h (3 Bft)
16/11/2007 15:00 9,7 C 29 % 1012,7 hPa 0,0 l/m 8,8 km/h (2 Bft) O-SO 0,87 h 0,203 mm 163 W/m -7,5 C 8,5 C 12,1 km/h (2 Bft)
16/11/2007 16:00 8,8 C 38 % 1013,2 hPa 0,0 l/m 10,2 km/h (2 Bft) O-SO 0,63 h 0,152 mm 57 W/m -5,0 C 7,2 C 14,0 km/h (3 Bft)
16/11/2007 17:00 6,6 C 49 % 1013,5 hPa 0,0 l/m 8,1 km/h (2 Bft) O 0,00 h 0,102 mm 6 W/m -3,3 C 5,0 C 10,9 km/h (2 Bft)
16/11/2007 18:00 5,8 C 49 % 1013,9 hPa 0,0 l/m 8,2 km/h (2 Bft) O-NO 0,00 h 0,051 mm 0 W/m -4,1 C 4,1 C 11,4 km/h (2 Bft)
16/11/2007 19:00 5,0 C 44 % 1014,6 hPa 0,0 l/m 2,0 km/h (1 Bft) N-NO 0,00 h 0,051 mm 0 W/m -6,3 C 4,8 C 3,4 km/h (1 Bft)
16/11/2007 20:00 4,9 C 41 % 1014,8 hPa 0,0 l/m 5,5 km/h (1 Bft) O-NO 0,00 h 0,051 mm 0 W/m -7,3 C 3,8 C 8,5 km/h (2 Bft)
16/11/2007 21:00 4,3 C 40 % 1015,1 hPa 0,0 l/m 5,0 km/h (1 Bft) O-NO 0,00 h 0,051 mm 0 W/m -8,0 C 3,4 C 7,5 km/h (2 Bft)
16/11/2007 22:00 4,6 C 35 % 1015,3 hPa 0,0 l/m 6,4 km/h (2 Bft) O-NO 0,00 h 0,051 mm 0 W/m -9,5 C 3,3 C 9,6 km/h (2 Bft)
16/11/2007 23:00 4,5 C 34 % 1015,0 hPa 0,0 l/m 5,0 km/h (1 Bft) O-NO 0,00 h 0,076 mm 0 W/m -10,2 C 3,6 C 8,1 km/h (2 Bft)
17/11/2007 00:00 4,2 C 34 % 1014,9 hPa 0,0 l/m 5,8 km/h (2 Bft) O-NO 0,00 h 0,051 mm 0 W/m -10,3 C 2,9 C 8,7 km/h (2 Bft)
17/11/2007 01:00 4,6 C 32 % 1014,7 hPa 0,0 l/m 11,9 km/h (2 Bft) O-NO 0,00 h 0,051 mm 0 W/m -10,8 C 1,8 C 15,7 km/h (3 Bft)
17/11/2007 02:00 4,8 C 30 % 1014,6 hPa 0,0 l/m 11,0 km/h (2 Bft) NO 0,00 h 0,102 mm 0 W/m -11,1 C 2,3 C 14,9 km/h (3 Bft)
17/11/2007 03:00 4,3 C 31 % 1014,3 hPa 0,0 l/m 4,6 km/h (1 Bft) O-NO 0,00 h 0,076 mm 0 W/m -11,4 C 3,5 C 6,9 km/h (2 Bft)
17/11/2007 04:00 4,4 C 30 % 1014,2 hPa 0,0 l/m 4,2 km/h (1 Bft) O-NO 0,00 h 0,051 mm 0 W/m -11,6 C 3,7 C 6,1 km/h (2 Bft)
17/11/2007 05:00 4,3 C 31 % 1014,3 hPa 0,0 l/m 4,6 km/h (1 Bft) NO 0,00 h 0,051 mm 0 W/m -11,4 C 3,5 C 7,0 km/h (2 Bft)
17/11/2007 06:00 4,7 C 30 % 1014,6 hPa 0,0 l/m 3,9 km/h (1 Bft) O-NO 0,00 h 0,051 mm 0 W/m -11,4 C 4,2 C 5,8 km/h (2 Bft)
17/11/2007 07:00 5,2 C 30 % 1014,6 hPa 0,0 l/m 4,6 km/h (1 Bft) NO 0,37 h 0,051 mm 32 W/m -11,0 C 4,5 C 6,6 km/h (2 Bft)
17/11/2007 08:00 7,0 C 28 % 1014,8 hPa 0,0 l/m 2,6 km/h (1 Bft) O-NO 0,72 h 0,051 mm 104 W/m -10,0 C 6,9 C 4,1 km/h (1 Bft)
17/11/2007 09:00 8,8 C 28 % 1015,2 hPa 0,0 l/m 0,6 km/h (0 Bft) S-SO 0,93 h 0,076 mm 247 W/m -8,8 C 8,8 C 1,5 km/h (1 Bft)
17/11/2007 10:00 11,0 C 26 % 1015,4 hPa 0,0 l/m 1,2 km/h (1 Bft) E-SE 1,00 h 0,127 mm 371 W/m -8,0 C 11,0 C 2,9 km/h (1 Bft)
17/11/2007 11:00 12,3 C 24 % 1015,5 hPa 0,0 l/m 6,0 km/h (2 Bft) S 1,00 h 0,203 mm 451 W/m -7,7 C 12,3 C 9,2 km/h (2 Bft)
17/11/2007 12:00 12,4 C 24 % 1014,9 hPa 0,0 l/m 11,1 km/h (2 Bft) S 0,85 h 0,279 mm 445 W/m -7,5 C 12,4 C 16,2 km/h (3 Bft)
17/11/2007 13:00 12,0 C 25 % 1014,6 hPa 0,0 l/m 12,6 km/h (3 Bft) S 0,75 h 0,305 mm 351 W/m -7,2 C 12,0 C 18,0 km/h (3 Bft)
17/11/2007 14:00 11,6 C 29 % 1014,1 hPa 0,0 l/m 10,9 km/h (2 Bft) S 0,70 h 0,279 mm 251 W/m -5,8 C 11,6 C 15,3 km/h (3 Bft)
17/11/2007 15:00 11,3 C 37 % 1014,0 hPa 0,0 l/m 13,0 km/h (3 Bft) S 1,00 h 0,203 mm 190 W/m -2,7 C 11,3 C 17,9 km/h (3 Bft)
17/11/2007 16:00 10,3 C 42 % 1014,3 hPa 0,0 l/m 8,1 km/h (2 Bft) S-SO 0,85 h 0,178 mm 56 W/m -1,9 C 10,2 C 11,4 km/h (2 Bft)
17/11/2007 17:00 8,2 C 49 % 1014,5 hPa 0,0 l/m 6,0 km/h (2 Bft) O 0,00 h 0,076 mm 6 W/m -1,8 C 7,4 C 7,8 km/h (2 Bft)
17/11/2007 18:00 7,1 C 53 % 1014,6 hPa 0,0 l/m 10,7 km/h (2 Bft) O-NO 0,00 h 0,051 mm 0 W/m -1,7 C 5,0 C 13,9 km/h (3 Bft)
17/11/2007 19:00 6,8 C 51 % 1014,4 hPa 0,0 l/m 11,9 km/h (2 Bft) O-NO 0,00 h 0,076 mm 0 W/m -2,7 C 4,5 C 16,0 km/h (3 Bft)
17/11/2007 20:00 6,1 C 52 % 1014,1 hPa 0,0 l/m 8,0 km/h (2 Bft) O-NO 0,00 h 0,076 mm 0 W/m -3,0 C 4,5 C 11,3 km/h (2 Bft)
17/11/2007 21:00 5,5 C 52 % 1014,1 hPa 0,0 l/m 5,9 km/h (2 Bft) O-NO 0,00 h 0,051 mm 0 W/m -3,4 C 4,4 C 8,4 km/h (2 Bft)
17/11/2007 22:00 5,2 C 56 % 1014,2 hPa 0,0 l/m 5,3 km/h (1 Bft) NO 0,00 h 0,051 mm 0 W/m -2,9 C 4,3 C 8,0 km/h (2 Bft)
17/11/2007 23:00 5,3 C 61 % 1013,7 hPa 0,0 l/m 6,1 km/h (2 Bft) NO 0,00 h 0,051 mm 0 W/m -1,6 C 4,1 C 8,8 km/h (2 Bft)
18/11/2007 00:00 5,2 C 63 % 1013,4 hPa 0,0 l/m 6,1 km/h (2 Bft) NO 0,00 h 0,051 mm 0 W/m -1,4 C 3,9 C 9,4 km/h (2 Bft)
18/11/2007 01:00 5,3 C 64 % 1013,0 hPa 0,0 l/m 6,3 km/h (2 Bft) NO 0,00 h 0,051 mm 0 W/m -1,1 C 3,9 C 9,2 km/h (2 Bft)
18/11/2007 02:00 4,7 C 65 % 1012,8 hPa 0,0 l/m 5,4 km/h (1 Bft) N-NO 0,00 h 0,051 mm 0 W/m -1,3 C 3,7 C 8,2 km/h (2 Bft)
18/11/2007 03:00 4,4 C 67 % 1012,5 hPa 0,0 l/m 4,1 km/h (1 Bft) N-NO 0,00 h 0,025 mm 0 W/m -1,2 C 3,9 C 6,6 km/h (2 Bft)
18/11/2007 04:00 4,2 C 69 % 1012,3 hPa 0,0 l/m 3,0 km/h (1 Bft) N-NO 0,00 h 0,025 mm 0 W/m -0,9 C 4,0 C 5,1 km/h (1 Bft)
18/11/2007 05:00 4,0 C 67 % 1012,0 hPa 0,0 l/m 4,2 km/h (1 Bft) NO 0,00 h 0,025 mm 0 W/m -1,5 C 3,4 C 6,2 km/h (2 Bft)
18/11/2007 06:00 4,2 C 63 % 1011,9 hPa 0,0 l/m 5,4 km/h (1 Bft) N-NO 0,00 h 0,025 mm 0 W/m -2,1 C 3,1 C 7,8 km/h (2 Bft)
18/11/2007 07:00 4,5 C 60 % 1011,9 hPa 0,0 l/m 6,1 km/h (2 Bft) NO 0,03 h 0,025 mm 11 W/m -2,7 C 3,1 C 8,7 km/h (2 Bft)
18/11/2007 08:00 4,9 C 60 % 1012,1 hPa 0,0 l/m 4,6 km/h (1 Bft) N-NO 0,23 h 0,025 mm 68 W/m -2,3 C 4,1 C 7,1 km/h (2 Bft)
18/11/2007 09:00 7,5 C 56 % 1011,8 hPa 0,0 l/m 1,5 km/h (1 Bft) N 0,68 h 0,051 mm 187 W/m -0,6 C 7,4 C 3,7 km/h (1 Bft)
18/11/2007 10:00 9,3 C 52 % 1011,6 hPa 0,0 l/m 2,1 km/h (1 Bft) N 0,90 h 0,102 mm 333 W/m -0,0 C 9,3 C 4,3 km/h (1 Bft)
18/11/2007 11:00 11,4 C 54 % 1011,2 hPa 0,0 l/m 4,9 km/h (1 Bft) E-NE 1,00 h 0,152 mm 415 W/m 2,5 C 11,4 C 7,5 km/h (2 Bft)
18/11/2007 12:00 12,0 C 55 % 1010,2 hPa 0,0 l/m 5,2 km/h (1 Bft) E-SE 0,90 h 0,229 mm 430 W/m 3,1 C 12,0 C 8,1 km/h (2 Bft)
18/11/2007 13:00 12,0 C 53 % 1009,1 hPa 0,0 l/m 7,1 km/h (2 Bft) S 0,68 h 0,229 mm 350 W/m 2,9 C 12,0 C 10,7 km/h (2 Bft)
18/11/2007 14:00 11,0 C 60 % 1008,5 hPa 0,0 l/m 7,6 km/h (2 Bft) S-SE 0,30 h 0,203 mm 174 W/m 3,5 C 11,0 C 11,2 km/h (2 Bft)
18/11/2007 15:00 10,4 C 64 % 1008,4 hPa 0,0 l/m 1,7 km/h (1 Bft) SE 0,38 h 0,127 mm 114 W/m 4,0 C 10,4 C 3,7 km/h (1 Bft)
18/11/2007 16:00 10,3 C 65 % 1008,3 hPa 0,0 l/m 7,3 km/h (2 Bft) SO 0,62 h 0,076 mm 55 W/m 3,9 C 10,1 C 10,1 km/h (2 Bft)
18/11/2007 17:00 8,5 C 72 % 1008,3 hPa 0,0 l/m 4,4 km/h (1 Bft) O-SO 0,00 h 0,051 mm 5 W/m 3,6 C 8,1 C 6,1 km/h (2 Bft)
18/11/2007 18:00 7,3 C 75 % 1008,6 hPa 0,0 l/m 6,9 km/h (2 Bft) O 0,00 h 0,025 mm 0 W/m 3,2 C 6,1 C 8,9 km/h (2 Bft)
18/11/2007 19:00 6,4 C 76 % 1008,6 hPa 0,0 l/m 8,4 km/h (2 Bft) O-NO 0,00 h 0,025 mm 0 W/m 2,5 C 4,7 C 10,1 km/h (2 Bft)
18/11/2007 20:00 5,6 C 76 % 1008,6 hPa 0,0 l/m 8,6 km/h (2 Bft) O-NO 0,00 h 0,025 mm 0 W/m 1,8 C 3,8 C 11,6 km/h (2 Bft)
18/11/2007 21:00 5,5 C 76 % 1008,9 hPa 0,0 l/m 6,3 km/h (2 Bft) NO 0,00 h 0,025 mm 0 W/m 1,6 C 4,3 C 9,3 km/h (2 Bft)
18/11/2007 22:00 5,4 C 76 % 1009,0 hPa 0,0 l/m 7,6 km/h (2 Bft) O-NO 0,00 h 0,025 mm 0 W/m 1,6 C 3,8 C 10,8 km/h (2 Bft)
18/11/2007 23:00 6,4 C 72 % 1009,3 hPa 0,0 l/m 10,0 km/h (2 Bft) O-NO 0,00 h 0,025 mm 0 W/m 1,8 C 4,3 C 14,2 km/h (3 Bft)
Min-Date _ 15/11/07 17/11/07 14/11/07 - 12/11/07 - - - - 17/11/07 15/11/07 12/11/07
_ Min-Heure 10:35 11:29 07:30 - 02:39 - - - - 04:19 10:56 04:39
Minimum _ 2,4 C 21 % 996,7 hPa - 0,0 km/h (0 Bft) - - - - -11,9 C -2,1 C 0,0 km/h (0 Bft)
Max-Date _ 12/11/07 15/11/07 17/11/07 15/11/07 15/11/07 - 12/11/07 12/11/07 15/11/07 12/11/07 12/11/07 15/11/07
_ Max-Heure 11:18 11:03 11:15 10:01 11:57 - 07:32 12:00 12:29 15:50 11:18 12:17
Maximum _ 17,7 C 89 % 1015,6 hPa 1,6 l/m 24,1 km/h
N (4 Bft)
- 0,02 h 0,330 mm 659 W/m 10,8 C 17,7 C 41,8 km/h
N (6 Bft)
Moyenne _ 8,7 C 52 % 1008,5 hPa #1,6 l/m 6,0 km/h (2 Bft) O-NO #42:38 h #14,873 mm 198 W/m -1,3 C 8,0 C 9,0 km/h (2 Bft)
Roquefort les pins